createdAt,value
2023-03-29T00:02:21.845Z,101484.00
2023-03-29T00:04:58.205Z,101482.40
2023-03-29T00:07:35.880Z,101483.80
2023-03-29T00:10:15.406Z,101485.80
2023-03-29T00:12:53.287Z,101487.40
2023-03-29T00:15:30.829Z,101488.40
2023-03-29T00:18:07.049Z,101488.20
2023-03-29T00:20:44.672Z,101479.40
2023-03-29T00:23:20.860Z,101482.60
2023-03-29T00:25:57.611Z,101488.20
2023-03-29T00:28:34.071Z,101479.60
2023-03-29T00:31:18.422Z,101470.40
2023-03-29T00:33:54.972Z,101469.60
2023-03-29T00:36:31.361Z,101463.00
2023-03-29T00:39:07.989Z,101454.40
2023-03-29T00:41:44.089Z,101455.20
2023-03-29T00:45:02.908Z,101454.00
2023-03-29T00:47:55.965Z,101442.80
2023-03-29T00:50:38.188Z,101437.20
2023-03-29T00:53:20.483Z,101434.80
2023-03-29T00:56:02.098Z,101426.00
2023-03-29T00:58:46.668Z,101419.20
2023-03-29T01:01:31.316Z,101408.60
2023-03-29T01:04:18.310Z,101402.80
2023-03-29T01:07:03.768Z,101402.40
2023-03-29T01:09:46.051Z,101394.60
2023-03-29T01:12:28.389Z,101378.80
2023-03-29T01:15:11.474Z,101371.60
2023-03-29T01:17:51.062Z,101368.20
2023-03-29T01:20:44.690Z,101371.60
2023-03-29T01:23:49.155Z,101369.20
2023-03-29T01:26:37.315Z,101367.00
2023-03-29T01:29:20.380Z,101365.80
2023-03-29T01:32:04.076Z,101368.60
2023-03-29T01:34:48.962Z,101370.00
2023-03-29T01:37:33.198Z,101371.40
2023-03-29T01:40:13.911Z,101369.40
2023-03-29T01:42:57.894Z,101372.60
2023-03-29T01:45:43.928Z,101379.60
2023-03-29T01:48:28.186Z,101397.00
2023-03-29T01:51:12.316Z,101399.60
2023-03-29T01:53:59.175Z,101393.20
2023-03-29T01:56:40.811Z,101388.20
2023-03-29T01:59:20.529Z,101387.80
2023-03-29T02:02:02.206Z,101383.60
2023-03-29T02:04:46.284Z,101372.20
2023-03-29T02:07:26.709Z,101366.00
2023-03-29T02:10:03.979Z,101370.60
2023-03-29T02:12:40.196Z,101369.00
2023-03-29T02:15:22.043Z,101368.40
2023-03-29T02:17:58.999Z,101374.60
2023-03-29T02:20:40.694Z,101375.80
2023-03-29T02:23:24.162Z,101376.00
2023-03-29T02:26:01.290Z,101379.80
2023-03-29T02:28:38.359Z,101380.60
2023-03-29T02:31:23.276Z,101379.80
2023-03-29T02:34:08.033Z,101377.60
2023-03-29T02:36:49.501Z,101378.20
2023-03-29T02:39:26.960Z,101376.40
2023-03-29T02:42:05.680Z,101375.60
2023-03-29T02:44:45.320Z,101361.20
2023-03-29T02:47:27.447Z,101365.20
2023-03-29T02:50:03.779Z,101367.80
2023-03-29T02:52:46.539Z,101355.60
2023-03-29T02:55:24.983Z,101349.40
2023-03-29T02:58:03.841Z,101359.20
2023-03-29T03:00:41.956Z,101363.80
2023-03-29T03:03:18.640Z,101369.60
2023-03-29T03:05:58.657Z,101373.80
2023-03-29T03:08:35.884Z,101370.80
2023-03-29T03:11:13.486Z,101368.20
2023-03-29T03:13:50.222Z,101363.40
2023-03-29T03:16:26.472Z,101359.00
2023-03-29T03:19:03.070Z,101359.20
2023-03-29T03:21:40.097Z,101364.40
2023-03-29T03:24:17.975Z,101359.80
2023-03-29T03:26:54.892Z,101364.60
2023-03-29T03:29:31.690Z,101364.80
2023-03-29T03:32:34.256Z,101358.80
2023-03-29T03:35:49.399Z,101360.60
2023-03-29T03:38:25.849Z,101368.80
2023-03-29T03:41:07.097Z,101380.20
2023-03-29T03:43:46.489Z,101388.80
2023-03-29T03:46:23.735Z,101389.00
2023-03-29T03:49:00.950Z,101384.80
2023-03-29T03:51:50.396Z,101397.20
2023-03-29T03:54:28.343Z,101394.20
2023-03-29T03:57:25.412Z,101392.40
2023-03-29T04:00:02.532Z,101387.80
2023-03-29T04:02:49.320Z,101373.40
2023-03-29T04:05:25.778Z,101377.60
2023-03-29T04:08:03.832Z,101376.80
2023-03-29T04:11:17.706Z,101385.20
2023-03-29T04:13:54.718Z,101386.00
2023-03-29T04:16:39.331Z,101387.40
2023-03-29T04:19:30.869Z,101384.80
2023-03-29T04:22:07.201Z,101390.00
2023-03-29T04:24:43.384Z,101388.60
2023-03-29T04:27:42.331Z,101383.40
2023-03-29T04:30:25.244Z,101389.00
2023-03-29T04:33:29.020Z,101387.40
2023-03-29T04:36:10.430Z,101389.80
2023-03-29T04:38:48.090Z,101394.20
2023-03-29T04:41:25.256Z,101398.60
2023-03-29T04:44:03.088Z,101397.00
2023-03-29T04:46:41.257Z,101405.40
2023-03-29T04:49:36.975Z,101409.80
2023-03-29T04:52:16.968Z,101410.40
2023-03-29T04:54:53.178Z,101406.80
2023-03-29T04:57:35.586Z,101404.60
2023-03-29T05:00:27.382Z,101404.40
2023-03-29T05:03:22.399Z,101404.80
2023-03-29T05:06:23.473Z,101408.40
2023-03-29T05:08:59.276Z,101408.20
2023-03-29T05:11:40.099Z,101406.20
2023-03-29T05:14:16.235Z,101403.40
2023-03-29T05:16:53.412Z,101402.60
2023-03-29T05:19:30.494Z,101408.00
2023-03-29T05:22:07.403Z,101408.20
2023-03-29T05:24:44.309Z,101406.60
2023-03-29T05:27:25.524Z,101407.00
2023-03-29T05:30:24.833Z,101400.80
2023-03-29T05:33:09.669Z,101401.40
2023-03-29T05:35:48.974Z,101409.00
2023-03-29T05:38:26.876Z,101403.20
2023-03-29T05:41:04.202Z,101401.60
2023-03-29T05:43:52.947Z,101397.20
2023-03-29T05:46:32.607Z,101399.80
2023-03-29T05:49:12.476Z,101399.00
2023-03-29T05:52:09.528Z,101402.00
2023-03-29T05:54:47.124Z,101399.60
2023-03-29T05:57:24.751Z,101402.20
2023-03-29T06:00:06.461Z,101402.80
2023-03-29T06:02:49.560Z,101407.60
2023-03-29T06:05:25.961Z,101417.60
2023-03-29T06:08:10.327Z,101423.20
2023-03-29T06:11:18.509Z,101416.60
2023-03-29T06:14:13.759Z,101405.00
2023-03-29T06:16:55.376Z,101407.40
2023-03-29T06:19:32.858Z,101404.20
2023-03-29T06:22:09.085Z,101396.80
2023-03-29T06:24:47.891Z,101401.20
2023-03-29T06:27:31.546Z,101409.20
2023-03-29T06:30:30.210Z,101412.80
2023-03-29T06:33:09.167Z,101405.60
2023-03-29T06:36:03.500Z,101405.20
2023-03-29T06:38:40.119Z,101406.40
2023-03-29T06:41:33.024Z,101409.40
2023-03-29T06:44:17.582Z,101422.60
2023-03-29T06:47:04.189Z,101435.20
2023-03-29T06:49:41.253Z,101435.60
2023-03-29T06:52:36.022Z,101441.40
2023-03-29T06:55:15.298Z,101426.60
2023-03-29T06:57:53.244Z,101430.00
2023-03-29T07:00:35.882Z,101428.60
2023-03-29T07:03:23.860Z,101435.00
2023-03-29T07:06:10.395Z,101438.60
2023-03-29T07:08:52.424Z,101449.60
2023-03-29T07:11:40.580Z,101456.40
2023-03-29T07:14:30.966Z,101456.20
2023-03-29T07:17:08.040Z,101458.40
2023-03-29T07:19:49.011Z,101456.00
2023-03-29T07:22:47.488Z,101464.20
2023-03-29T07:25:25.924Z,101468.40
2023-03-29T07:28:02.336Z,101477.40
2023-03-29T07:30:39.929Z,101471.00
2023-03-29T07:33:26.308Z,101477.00
2023-03-29T07:36:05.776Z,101487.40
2023-03-29T07:38:44.845Z,101487.00
2023-03-29T07:41:26.825Z,101492.20
2023-03-29T07:44:18.352Z,101484.40
2023-03-29T07:46:56.290Z,101486.00
2023-03-29T07:49:33.745Z,101480.00
2023-03-29T07:52:10.412Z,101473.60
2023-03-29T07:54:47.579Z,101472.00
2023-03-29T07:57:36.538Z,101474.40
2023-03-29T08:00:20.763Z,101473.20
2023-03-29T08:03:04.354Z,101473.40
2023-03-29T08:05:42.135Z,101473.00
2023-03-29T08:08:24.305Z,101474.00
2023-03-29T08:11:05.397Z,101465.40
2023-03-29T08:14:04.309Z,101461.00
2023-03-29T08:16:59.001Z,101461.40
2023-03-29T08:19:35.537Z,101456.40
2023-03-29T08:22:13.486Z,101454.60
2023-03-29T08:25:11.199Z,101443.60
2023-03-29T08:27:54.266Z,101443.00
2023-03-29T08:30:40.641Z,101447.40
2023-03-29T08:33:16.858Z,101443.40
2023-03-29T08:35:54.002Z,101436.60
2023-03-29T08:38:40.680Z,101439.40
2023-03-29T08:41:41.031Z,101442.20
2023-03-29T08:44:51.948Z,101452.40
2023-03-29T08:47:38.296Z,101448.80
2023-03-29T08:50:23.344Z,101448.00
2023-03-29T08:53:08.623Z,101450.20
2023-03-29T08:56:15.965Z,101441.40
2023-03-29T08:59:20.178Z,101441.80
2023-03-29T09:02:02.140Z,101440.20
2023-03-29T09:04:46.897Z,101440.80
2023-03-29T09:07:53.357Z,101441.80
2023-03-29T09:10:40.020Z,101439.00
2023-03-29T09:13:35.493Z,101442.20
2023-03-29T09:16:28.897Z,101434.60
2023-03-29T09:19:26.492Z,101438.80
2023-03-29T09:22:20.906Z,101435.20
2023-03-29T09:25:22.111Z,101429.80
2023-03-29T09:28:16.292Z,101432.00
2023-03-29T09:31:15.595Z,101434.60
2023-03-29T09:33:59.809Z,101436.40
2023-03-29T09:36:57.001Z,101428.60
2023-03-29T09:39:35.101Z,101427.00
2023-03-29T09:42:20.253Z,101423.60
2023-03-29T09:45:08.840Z,101421.20
2023-03-29T09:47:59.942Z,101417.20
2023-03-29T09:50:47.175Z,101409.20
2023-03-29T09:53:25.151Z,101407.40
2023-03-29T09:56:16.006Z,101411.00
2023-03-29T09:58:58.749Z,101411.60
2023-03-29T10:01:46.293Z,101411.40
2023-03-29T10:04:24.072Z,101407.00
2023-03-29T10:07:07.401Z,101398.80
2023-03-29T10:09:44.998Z,101393.20
2023-03-29T10:12:25.811Z,101392.40
2023-03-29T10:15:08.575Z,101389.60
2023-03-29T10:17:49.592Z,101387.20
2023-03-29T10:20:29.830Z,101387.20
2023-03-29T10:23:07.620Z,101382.00
2023-03-29T10:25:47.155Z,101383.40
2023-03-29T10:28:27.118Z,101377.00
2023-03-29T10:31:08.449Z,101368.80
2023-03-29T10:33:45.580Z,101364.80
2023-03-29T10:36:25.477Z,101363.20
2023-03-29T10:39:07.500Z,101357.00
2023-03-29T10:41:46.775Z,101345.60
2023-03-29T10:44:40.156Z,101346.80
2023-03-29T10:47:20.829Z,101345.80
2023-03-29T10:50:01.907Z,101340.20
2023-03-29T10:52:39.639Z,101343.80
2023-03-29T10:55:20.248Z,101332.40
2023-03-29T10:58:13.731Z,101328.40
2023-03-29T11:00:58.717Z,101325.00
2023-03-29T11:03:56.324Z,101324.00
2023-03-29T11:06:40.808Z,101317.60
2023-03-29T11:09:36.100Z,101320.60
2023-03-29T11:12:25.033Z,101314.40
2023-03-29T11:15:21.321Z,101315.20
2023-03-29T11:18:11.789Z,101306.20
2023-03-29T11:20:54.179Z,101308.40
2023-03-29T11:23:48.411Z,101318.40
2023-03-29T11:26:32.273Z,101315.20
2023-03-29T11:29:18.543Z,101312.00
2023-03-29T11:32:07.415Z,101301.00
2023-03-29T11:35:03.186Z,101295.80
2023-03-29T11:37:52.951Z,101287.40
2023-03-29T11:40:47.271Z,101287.60
2023-03-29T11:43:33.550Z,101296.80
2023-03-29T11:46:19.681Z,101300.80
2023-03-29T11:49:05.266Z,101294.60
2023-03-29T11:51:49.140Z,101297.00
2023-03-29T11:54:35.332Z,101297.00
2023-03-29T11:57:26.467Z,101300.20
2023-03-29T12:00:13.282Z,101298.20
2023-03-29T12:02:58.877Z,101289.40
2023-03-29T12:05:42.624Z,101280.00
2023-03-29T12:08:26.536Z,101278.00
2023-03-29T12:11:12.159Z,101284.20
2023-03-29T12:13:56.997Z,101277.40
2023-03-29T12:16:37.223Z,101267.60
2023-03-29T12:19:26.073Z,101259.40
2023-03-29T12:22:07.922Z,101257.20
2023-03-29T12:24:51.796Z,101253.20
2023-03-29T12:27:37.772Z,101245.60
2023-03-29T12:30:52.129Z,101242.00
2023-03-29T12:34:15.371Z,101246.40
2023-03-29T12:37:26.346Z,101243.40
2023-03-29T12:40:29.767Z,101243.40
2023-03-29T12:43:31.145Z,101235.60
2023-03-29T12:46:35.000Z,101235.80
2023-03-29T12:49:25.576Z,101238.20
2023-03-29T12:52:04.989Z,101232.40
2023-03-29T12:54:41.407Z,101228.20
2023-03-29T12:57:42.091Z,101232.20
2023-03-29T13:00:45.195Z,101225.40
2023-03-29T13:03:43.864Z,101235.00
2023-03-29T13:06:32.820Z,101228.40
2023-03-29T13:09:29.835Z,101215.20
2023-03-29T13:12:21.126Z,101213.00
2023-03-29T13:15:03.558Z,101212.40
2023-03-29T13:17:52.311Z,101210.40
2023-03-29T13:20:48.644Z,101218.40
2023-03-29T13:23:56.943Z,101210.60
2023-03-29T13:26:59.814Z,101204.60
2023-03-29T13:30:18.204Z,101196.20
2023-03-29T13:33:14.235Z,101200.00
2023-03-29T13:36:03.479Z,101197.20
2023-03-29T13:38:53.269Z,101204.80
2023-03-29T13:41:52.487Z,101194.00
2023-03-29T13:44:49.542Z,101198.40
2023-03-29T13:47:58.717Z,101184.20
2023-03-29T13:50:53.623Z,101184.20
2023-03-29T13:53:39.020Z,101184.20
2023-03-29T13:56:25.424Z,101184.00
2023-03-29T13:59:12.418Z,101181.40
2023-03-29T14:01:57.983Z,101180.80
2023-03-29T14:04:42.092Z,101175.00
2023-03-29T14:07:26.812Z,101179.60
2023-03-29T14:10:05.947Z,101174.40
2023-03-29T14:12:43.953Z,101174.40
2023-03-29T14:15:31.081Z,101179.40
2023-03-29T14:18:08.253Z,101165.20
2023-03-29T14:20:52.881Z,101162.00
2023-03-29T14:23:30.536Z,101159.00
2023-03-29T14:26:19.275Z,101162.00
2023-03-29T14:28:59.519Z,101162.00
2023-03-29T14:31:37.896Z,101161.80
2023-03-29T14:34:19.333Z,101151.00
2023-03-29T14:36:57.018Z,101154.40
2023-03-29T14:39:37.643Z,101149.80
2023-03-29T14:42:23.223Z,101160.80
2023-03-29T14:45:13.123Z,101158.80
2023-03-29T14:47:50.328Z,101160.40
2023-03-29T14:50:33.386Z,101163.60
2023-03-29T14:53:10.876Z,101154.40
2023-03-29T14:55:50.693Z,101157.00
2023-03-29T14:58:30.140Z,101163.60
2023-03-29T15:01:18.539Z,101167.40
2023-03-29T15:04:05.335Z,101162.20
2023-03-29T15:06:47.076Z,101169.00
2023-03-29T15:09:32.247Z,101167.00
2023-03-29T15:12:09.491Z,101164.20
2023-03-29T15:14:46.346Z,101158.80
2023-03-29T15:17:50.415Z,101153.80
2023-03-29T15:20:34.711Z,101149.60
2023-03-29T15:23:24.442Z,101148.00
2023-03-29T15:26:10.867Z,101156.00
2023-03-29T15:28:57.774Z,101151.20
2023-03-29T15:31:41.410Z,101149.60
2023-03-29T15:34:28.056Z,101149.20
2023-03-29T15:37:05.727Z,101148.00
2023-03-29T15:39:46.880Z,101153.20
2023-03-29T15:42:23.969Z,101156.00
2023-03-29T15:45:05.178Z,101151.40
2023-03-29T15:47:41.107Z,101148.00
2023-03-29T15:50:21.154Z,101144.60
2023-03-29T15:53:08.674Z,101143.60
2023-03-29T15:55:54.851Z,101144.20
2023-03-29T15:58:35.192Z,101144.20
2023-03-29T16:01:24.417Z,101139.80
2023-03-29T16:04:01.041Z,101135.80
2023-03-29T16:06:37.704Z,101133.20
2023-03-29T16:09:14.793Z,101132.00
2023-03-29T16:11:51.908Z,101126.40
2023-03-29T16:14:30.752Z,101121.80
2023-03-29T16:17:08.833Z,101118.20
2023-03-29T16:19:46.122Z,101122.00
2023-03-29T16:22:22.128Z,101117.60
2023-03-29T16:24:58.805Z,101120.00
2023-03-29T16:27:35.304Z,101119.80
2023-03-29T16:30:19.243Z,101117.00
2023-03-29T16:32:55.061Z,101118.00
2023-03-29T16:35:36.317Z,101120.00
2023-03-29T16:38:12.925Z,101118.20
2023-03-29T16:40:51.450Z,101117.20
2023-03-29T16:43:27.974Z,101125.00
2023-03-29T16:46:07.201Z,101128.60
2023-03-29T16:48:43.637Z,101128.20
2023-03-29T16:51:20.251Z,101133.80
2023-03-29T16:53:56.970Z,101133.00
2023-03-29T16:56:33.456Z,101134.60
2023-03-29T16:59:12.356Z,101140.60
2023-03-29T17:01:48.737Z,101147.00
2023-03-29T17:04:26.325Z,101143.60
2023-03-29T17:07:02.955Z,101142.80
2023-03-29T17:09:39.860Z,101141.00
2023-03-29T17:12:16.512Z,101142.60
2023-03-29T17:14:54.445Z,101143.60
2023-03-29T17:17:31.021Z,101144.60
2023-03-29T17:20:10.306Z,101146.00
2023-03-29T17:22:46.301Z,101149.00
2023-03-29T17:25:24.298Z,101149.60
2023-03-29T17:28:00.875Z,101151.60
2023-03-29T17:30:37.852Z,101156.40
2023-03-29T17:33:14.790Z,101156.20
2023-03-29T17:35:52.285Z,101156.00
2023-03-29T17:38:30.397Z,101160.20
2023-03-29T17:41:09.530Z,101166.80
2023-03-29T17:43:48.142Z,101167.60
2023-03-29T17:46:25.479Z,101165.60
2023-03-29T17:49:02.270Z,101167.40
2023-03-29T17:51:39.318Z,101168.40
2023-03-29T17:54:16.442Z,101169.40
2023-03-29T17:56:53.461Z,101172.80
2023-03-29T17:59:31.067Z,101177.00
2023-03-29T18:02:09.105Z,101183.60
2023-03-29T18:04:46.442Z,101189.00
2023-03-29T18:07:22.990Z,101192.00
2023-03-29T18:09:59.123Z,101204.60
2023-03-29T18:12:35.784Z,101215.20
2023-03-29T18:15:17.593Z,101223.20
2023-03-29T18:17:54.582Z,101222.20
2023-03-29T18:20:31.009Z,101223.60
2023-03-29T18:23:07.460Z,101226.00
2023-03-29T18:25:44.528Z,101234.20
2023-03-29T18:28:21.728Z,101239.20
2023-03-29T18:31:02.331Z,101238.60
2023-03-29T18:33:41.261Z,101239.40
2023-03-29T18:36:18.655Z,101244.80
2023-03-29T18:38:55.868Z,101248.40
2023-03-29T18:41:32.899Z,101254.80
2023-03-29T18:44:09.712Z,101257.80
2023-03-29T18:46:45.784Z,101260.20
2023-03-29T18:49:22.496Z,101264.00
2023-03-29T18:51:58.683Z,101265.80
2023-03-29T18:54:35.155Z,101267.40
2023-03-29T18:57:11.373Z,101274.20
2023-03-29T18:59:47.511Z,101280.00
2023-03-29T19:02:23.921Z,101281.00
2023-03-29T19:05:01.550Z,101284.40
2023-03-29T19:07:37.597Z,101289.80
2023-03-29T19:10:16.992Z,101287.80
2023-03-29T19:12:55.123Z,101292.20
2023-03-29T19:15:34.926Z,101286.40
2023-03-29T19:18:11.667Z,101287.40
2023-03-29T19:20:51.303Z,101286.20
2023-03-29T19:23:29.012Z,101292.20
2023-03-29T19:26:07.572Z,101292.20
2023-03-29T19:28:44.197Z,101288.00
2023-03-29T19:31:21.566Z,101285.20
2023-03-29T19:33:58.658Z,101294.00
2023-03-29T19:36:35.129Z,101295.60
2023-03-29T19:39:12.131Z,101300.20
2023-03-29T19:41:48.985Z,101297.80
2023-03-29T19:44:26.105Z,101301.00
2023-03-29T19:47:03.042Z,101301.80
2023-03-29T19:49:39.128Z,101306.00
2023-03-29T19:52:15.799Z,101311.00
2023-03-29T19:54:52.338Z,101320.20
2023-03-29T19:57:28.953Z,101318.00
2023-03-29T20:00:05.668Z,101315.80
2023-03-29T20:02:51.460Z,101317.20
2023-03-29T20:05:31.161Z,101315.60
2023-03-29T20:08:08.131Z,101318.40
2023-03-29T20:10:45.177Z,101322.80
2023-03-29T20:13:31.345Z,101325.20
2023-03-29T20:16:17.191Z,101325.40
2023-03-29T20:18:54.292Z,101324.20
2023-03-29T20:21:30.852Z,101330.40
2023-03-29T20:24:08.991Z,101328.60
2023-03-29T20:26:45.520Z,101330.00
2023-03-29T20:29:22.464Z,101330.20
2023-03-29T20:31:59.797Z,101335.80
2023-03-29T20:34:36.507Z,101341.80
2023-03-29T20:37:13.098Z,101338.80
2023-03-29T20:39:49.420Z,101338.00
2023-03-29T20:42:29.962Z,101339.80
2023-03-29T20:45:07.364Z,101341.60
2023-03-29T20:47:50.664Z,101347.40
2023-03-29T20:50:30.350Z,101347.40
2023-03-29T20:53:07.066Z,101347.60
2023-03-29T20:55:45.185Z,101348.40
2023-03-29T20:58:22.139Z,101350.20
2023-03-29T21:00:58.872Z,101354.00
2023-03-29T21:03:35.331Z,101353.40
2023-03-29T21:06:14.396Z,101359.40
2023-03-29T21:08:52.587Z,101364.80
2023-03-29T21:11:30.225Z,101361.20
2023-03-29T21:14:07.583Z,101360.20
2023-03-29T21:16:44.808Z,101364.20
2023-03-29T21:19:20.840Z,101359.80
2023-03-29T21:21:57.947Z,101354.40
2023-03-29T21:24:36.756Z,101362.20
2023-03-29T21:27:15.251Z,101359.20
2023-03-29T21:29:51.598Z,101361.40
2023-03-29T21:32:29.398Z,101357.00
2023-03-29T21:35:06.233Z,101355.00
2023-03-29T21:37:42.388Z,101344.20
2023-03-29T21:40:22.084Z,101344.20
2023-03-29T21:42:59.228Z,101340.80
2023-03-29T21:45:35.861Z,101337.00
2023-03-29T21:48:14.952Z,101343.00
2023-03-29T21:50:53.453Z,101346.80
2023-03-29T21:53:30.631Z,101347.20
2023-03-29T21:56:09.229Z,101350.20
2023-03-29T21:58:45.956Z,101354.80
2023-03-29T22:01:22.409Z,101357.80
2023-03-29T22:03:58.545Z,101355.80
2023-03-29T22:06:35.929Z,101349.00
2023-03-29T22:09:12.454Z,101343.00
2023-03-29T22:11:48.948Z,101344.40
2023-03-29T22:14:25.300Z,101336.80
2023-03-29T22:17:02.122Z,101328.00
2023-03-29T22:19:40.270Z,101328.40
2023-03-29T22:22:18.491Z,101339.00
2023-03-29T22:24:56.907Z,101343.40
2023-03-29T22:27:34.260Z,101343.40
2023-03-29T22:30:16.328Z,101337.60
2023-03-29T22:32:53.357Z,101329.60
2023-03-29T22:35:30.745Z,101332.60
2023-03-29T22:38:06.393Z,101333.60
2023-03-29T22:40:47.300Z,101330.00
2023-03-29T22:43:24.828Z,101331.00
2023-03-29T22:46:01.723Z,101330.60
2023-03-29T22:48:39.241Z,101327.80
2023-03-29T22:51:16.896Z,101327.00
2023-03-29T22:53:55.078Z,101329.80
2023-03-29T22:56:32.043Z,101325.80
2023-03-29T22:59:09.435Z,101316.40
2023-03-29T23:01:46.632Z,101321.40
2023-03-29T23:04:24.669Z,101328.20
2023-03-29T23:07:00.627Z,101341.00
2023-03-29T23:09:37.878Z,101346.80
2023-03-29T23:12:16.600Z,101340.40
2023-03-29T23:14:53.414Z,101329.00
2023-03-29T23:17:30.445Z,101324.40
2023-03-29T23:20:08.668Z,101329.00
2023-03-29T23:22:45.125Z,101334.60
2023-03-29T23:25:22.327Z,101337.60
2023-03-29T23:27:59.536Z,101338.00
2023-03-29T23:30:37.385Z,101344.00
2023-03-29T23:33:14.699Z,101345.00
2023-03-29T23:35:51.449Z,101345.20
2023-03-29T23:38:28.149Z,101352.80
2023-03-29T23:41:06.800Z,101361.60
2023-03-29T23:43:47.333Z,101360.00
2023-03-29T23:46:24.636Z,101356.40
2023-03-29T23:49:02.132Z,101353.00
2023-03-29T23:51:39.265Z,101356.00
2023-03-29T23:54:16.109Z,101353.40
2023-03-29T23:56:52.655Z,101356.80
2023-03-29T23:59:30.624Z,101356.60
